sensor_id;sensor_type;location;lat;lon;timestamp;P1;durP1;ratioP1;P2;durP2;ratioP2
16294;SDS011;8255;49.560;8.244;2023-03-03T00:00:24;13.13;;;9.33;;
16294;SDS011;8255;49.560;8.244;2023-03-03T00:02:50;13.23;;;8.33;;
16294;SDS011;8255;49.560;8.244;2023-03-03T00:05:17;9.37;;;7.40;;
16294;SDS011;8255;49.560;8.244;2023-03-03T00:07:43;7.20;;;6.50;;
16294;SDS011;8255;49.560;8.244;2023-03-03T00:10:10;9.03;;;6.83;;
16294;SDS011;8255;49.560;8.244;2023-03-03T00:12:39;7.20;;;6.20;;
16294;SDS011;8255;49.560;8.244;2023-03-03T00:15:12;10.30;;;6.30;;
16294;SDS011;8255;49.560;8.244;2023-03-03T00:17:39;8.87;;;7.63;;
16294;SDS011;8255;49.560;8.244;2023-03-03T00:22:46;8.77;;;6.70;;
16294;SDS011;8255;49.560;8.244;2023-03-03T00:25:20;7.90;;;6.63;;
16294;SDS011;8255;49.560;8.244;2023-03-03T00:27:50;8.93;;;6.17;;
16294;SDS011;8255;49.560;8.244;2023-03-03T00:30:19;8.13;;;6.57;;
16294;SDS011;8255;49.560;8.244;2023-03-03T00:32:48;10.07;;;6.17;;
16294;SDS011;8255;49.560;8.244;2023-03-03T00:35:19;6.63;;;5.90;;
16294;SDS011;8255;49.560;8.244;2023-03-03T00:37:48;7.37;;;6.30;;
16294;SDS011;8255;49.560;8.244;2023-03-03T00:40:21;6.93;;;5.83;;
16294;SDS011;8255;49.560;8.244;2023-03-03T00:42:48;7.63;;;5.97;;
16294;SDS011;8255;49.560;8.244;2023-03-03T00:45:20;7.93;;;6.30;;
16294;SDS011;8255;49.560;8.244;2023-03-03T00:47:47;9.13;;;6.57;;
16294;SDS011;8255;49.560;8.244;2023-03-03T00:50:17;7.40;;;6.07;;
16294;SDS011;8255;49.560;8.244;2023-03-03T00:52:52;7.93;;;6.40;;
16294;SDS011;8255;49.560;8.244;2023-03-03T00:55:19;10.07;;;6.60;;
16294;SDS011;8255;49.560;8.244;2023-03-03T00:57:45;9.43;;;6.90;;
16294;SDS011;8255;49.560;8.244;2023-03-03T01:00:13;8.30;;;6.30;;
16294;SDS011;8255;49.560;8.244;2023-03-03T01:02:41;8.37;;;6.90;;
16294;SDS011;8255;49.560;8.244;2023-03-03T01:05:12;8.47;;;6.80;;
16294;SDS011;8255;49.560;8.244;2023-03-03T01:07:38;7.53;;;6.00;;
16294;SDS011;8255;49.560;8.244;2023-03-03T01:10:05;9.27;;;7.00;;
16294;SDS011;8255;49.560;8.244;2023-03-03T01:12:32;7.80;;;7.00;;
16294;SDS011;8255;49.560;8.244;2023-03-03T01:14:59;9.20;;;6.13;;
16294;SDS011;8255;49.560;8.244;2023-03-03T01:17:26;8.73;;;6.60;;
16294;SDS011;8255;49.560;8.244;2023-03-03T01:19:53;9.40;;;6.47;;
16294;SDS011;8255;49.560;8.244;2023-03-03T01:22:19;7.60;;;6.80;;
16294;SDS011;8255;49.560;8.244;2023-03-03T01:24:46;9.00;;;6.73;;
16294;SDS011;8255;49.560;8.244;2023-03-03T01:27:12;9.27;;;7.20;;
16294;SDS011;8255;49.560;8.244;2023-03-03T01:29:39;10.57;;;7.37;;
16294;SDS011;8255;49.560;8.244;2023-03-03T01:32:05;8.43;;;6.93;;
16294;SDS011;8255;49.560;8.244;2023-03-03T01:34:31;9.50;;;7.37;;
16294;SDS011;8255;49.560;8.244;2023-03-03T01:37:00;9.23;;;7.37;;
16294;SDS011;8255;49.560;8.244;2023-03-03T01:39:26;11.73;;;7.50;;
16294;SDS011;8255;49.560;8.244;2023-03-03T01:41:52;9.70;;;7.57;;
16294;SDS011;8255;49.560;8.244;2023-03-03T01:44:19;8.37;;;7.10;;
16294;SDS011;8255;49.560;8.244;2023-03-03T01:46:47;8.93;;;7.63;;
16294;SDS011;8255;49.560;8.244;2023-03-03T01:49:14;9.03;;;7.07;;
16294;SDS011;8255;49.560;8.244;2023-03-03T01:51:44;11.60;;;8.07;;
16294;SDS011;8255;49.560;8.244;2023-03-03T01:54:15;9.40;;;7.47;;
16294;SDS011;8255;49.560;8.244;2023-03-03T01:56:43;10.47;;;7.80;;
16294;SDS011;8255;49.560;8.244;2023-03-03T01:59:10;11.93;;;8.70;;
16294;SDS011;8255;49.560;8.244;2023-03-03T02:01:38;10.80;;;8.00;;
16294;SDS011;8255;49.560;8.244;2023-03-03T02:04:06;10.43;;;7.77;;
16294;SDS011;8255;49.560;8.244;2023-03-03T02:06:34;11.83;;;7.70;;
16294;SDS011;8255;49.560;8.244;2023-03-03T02:09:04;10.63;;;8.37;;
16294;SDS011;8255;49.560;8.244;2023-03-03T02:11:33;11.07;;;8.50;;
16294;SDS011;8255;49.560;8.244;2023-03-03T02:14:01;9.97;;;7.73;;
16294;SDS011;8255;49.560;8.244;2023-03-03T02:16:28;12.13;;;7.97;;
16294;SDS011;8255;49.560;8.244;2023-03-03T02:18:54;10.37;;;8.23;;
16294;SDS011;8255;49.560;8.244;2023-03-03T02:21:21;14.10;;;8.17;;
16294;SDS011;8255;49.560;8.244;2023-03-03T02:23:49;11.63;;;8.10;;
16294;SDS011;8255;49.560;8.244;2023-03-03T02:26:21;11.67;;;8.77;;
16294;SDS011;8255;49.560;8.244;2023-03-03T02:28:53;11.80;;;9.30;;
16294;SDS011;8255;49.560;8.244;2023-03-03T02:31:21;12.50;;;8.93;;
16294;SDS011;8255;49.560;8.244;2023-03-03T02:33:49;11.90;;;8.90;;
16294;SDS011;8255;49.560;8.244;2023-03-03T02:36:16;13.40;;;8.87;;
16294;SDS011;8255;49.560;8.244;2023-03-03T02:38:45;12.27;;;9.23;;
16294;SDS011;8255;49.560;8.244;2023-03-03T02:41:15;12.43;;;9.37;;
16294;SDS011;8255;49.560;8.244;2023-03-03T02:43:47;13.73;;;9.00;;
16294;SDS011;8255;49.560;8.244;2023-03-03T02:46:16;13.07;;;8.83;;
16294;SDS011;8255;49.560;8.244;2023-03-03T02:48:43;12.27;;;9.30;;
16294;SDS011;8255;49.560;8.244;2023-03-03T02:51:09;12.43;;;9.07;;
16294;SDS011;8255;49.560;8.244;2023-03-03T02:53:35;12.87;;;9.33;;
16294;SDS011;8255;49.560;8.244;2023-03-03T02:56:02;11.13;;;8.70;;
16294;SDS011;8255;49.560;8.244;2023-03-03T02:58:29;12.40;;;9.50;;
16294;SDS011;8255;49.560;8.244;2023-03-03T03:00:57;12.40;;;9.67;;
16294;SDS011;8255;49.560;8.244;2023-03-03T03:03:23;11.67;;;9.30;;
16294;SDS011;8255;49.560;8.244;2023-03-03T03:05:50;11.77;;;9.33;;
16294;SDS011;8255;49.560;8.244;2023-03-03T03:08:18;10.67;;;9.50;;
16294;SDS011;8255;49.560;8.244;2023-03-03T03:10:45;13.13;;;10.03;;
16294;SDS011;8255;49.560;8.244;2023-03-03T03:13:11;13.00;;;9.40;;
16294;SDS011;8255;49.560;8.244;2023-03-03T03:15:39;13.83;;;10.37;;
16294;SDS011;8255;49.560;8.244;2023-03-03T03:18:06;13.93;;;10.13;;
16294;SDS011;8255;49.560;8.244;2023-03-03T03:20:34;15.93;;;10.77;;
16294;SDS011;8255;49.560;8.244;2023-03-03T03:23:01;13.90;;;10.23;;
16294;SDS011;8255;49.560;8.244;2023-03-03T03:25:27;15.20;;;11.00;;
16294;SDS011;8255;49.560;8.244;2023-03-03T03:27:54;13.97;;;10.87;;
16294;SDS011;8255;49.560;8.244;2023-03-03T03:30:21;14.03;;;10.47;;
16294;SDS011;8255;49.560;8.244;2023-03-03T03:32:48;13.77;;;10.40;;
16294;SDS011;8255;49.560;8.244;2023-03-03T03:35:16;14.07;;;11.23;;
16294;SDS011;8255;49.560;8.244;2023-03-03T03:37:43;16.17;;;11.30;;
16294;SDS011;8255;49.560;8.244;2023-03-03T03:40:10;16.10;;;11.37;;
16294;SDS011;8255;49.560;8.244;2023-03-03T03:42:36;17.83;;;11.93;;
16294;SDS011;8255;49.560;8.244;2023-03-03T03:45:04;15.17;;;11.17;;
16294;SDS011;8255;49.560;8.244;2023-03-03T03:47:31;17.43;;;11.80;;
16294;SDS011;8255;49.560;8.244;2023-03-03T03:49:58;18.40;;;12.73;;
16294;SDS011;8255;49.560;8.244;2023-03-03T03:52:25;20.03;;;12.67;;
16294;SDS011;8255;49.560;8.244;2023-03-03T03:54:52;15.30;;;11.93;;
16294;SDS011;8255;49.560;8.244;2023-03-03T03:57:18;18.07;;;13.30;;
16294;SDS011;8255;49.560;8.244;2023-03-03T03:59:44;17.73;;;12.73;;
16294;SDS011;8255;49.560;8.244;2023-03-03T04:02:11;18.23;;;13.37;;
16294;SDS011;8255;49.560;8.244;2023-03-03T04:04:37;17.90;;;12.93;;
16294;SDS011;8255;49.560;8.244;2023-03-03T04:07:05;19.47;;;13.67;;
16294;SDS011;8255;49.560;8.244;2023-03-03T04:09:33;20.90;;;13.33;;
16294;SDS011;8255;49.560;8.244;2023-03-03T04:11:59;18.20;;;13.07;;
16294;SDS011;8255;49.560;8.244;2023-03-03T04:14:28;19.87;;;13.47;;
16294;SDS011;8255;49.560;8.244;2023-03-03T04:16:54;20.17;;;13.80;;
16294;SDS011;8255;49.560;8.244;2023-03-03T04:19:21;20.10;;;14.03;;
16294;SDS011;8255;49.560;8.244;2023-03-03T04:21:49;22.67;;;14.10;;
16294;SDS011;8255;49.560;8.244;2023-03-03T04:24:16;20.43;;;13.97;;
16294;SDS011;8255;49.560;8.244;2023-03-03T04:26:45;18.27;;;13.20;;
16294;SDS011;8255;49.560;8.244;2023-03-03T04:29:12;20.33;;;14.43;;
16294;SDS011;8255;49.560;8.244;2023-03-03T04:31:41;20.10;;;14.80;;
16294;SDS011;8255;49.560;8.244;2023-03-03T04:34:08;22.57;;;15.27;;
16294;SDS011;8255;49.560;8.244;2023-03-03T04:36:35;22.37;;;15.33;;
16294;SDS011;8255;49.560;8.244;2023-03-03T04:39:01;22.50;;;15.23;;
16294;SDS011;8255;49.560;8.244;2023-03-03T04:41:28;23.67;;;15.47;;
16294;SDS011;8255;49.560;8.244;2023-03-03T04:43:55;27.70;;;16.93;;
16294;SDS011;8255;49.560;8.244;2023-03-03T04:46:22;26.90;;;16.83;;
16294;SDS011;8255;49.560;8.244;2023-03-03T04:48:49;23.60;;;15.80;;
16294;SDS011;8255;49.560;8.244;2023-03-03T04:51:16;24.67;;;15.47;;
16294;SDS011;8255;49.560;8.244;2023-03-03T04:53:43;23.20;;;16.60;;
16294;SDS011;8255;49.560;8.244;2023-03-03T04:56:10;24.67;;;16.23;;
16294;SDS011;8255;49.560;8.244;2023-03-03T04:58:36;23.47;;;15.87;;
16294;SDS011;8255;49.560;8.244;2023-03-03T05:01:04;21.37;;;14.73;;
16294;SDS011;8255;49.560;8.244;2023-03-03T05:03:32;26.40;;;15.70;;
16294;SDS011;8255;49.560;8.244;2023-03-03T05:05:58;21.77;;;15.50;;
16294;SDS011;8255;49.560;8.244;2023-03-03T05:08:25;25.23;;;15.97;;
16294;SDS011;8255;49.560;8.244;2023-03-03T05:10:51;25.37;;;15.80;;
16294;SDS011;8255;49.560;8.244;2023-03-03T05:13:17;25.63;;;16.37;;
16294;SDS011;8255;49.560;8.244;2023-03-03T05:15:47;25.37;;;16.67;;
16294;SDS011;8255;49.560;8.244;2023-03-03T05:18:15;23.13;;;16.13;;
16294;SDS011;8255;49.560;8.244;2023-03-03T05:20:41;25.77;;;16.77;;
16294;SDS011;8255;49.560;8.244;2023-03-03T05:23:08;26.37;;;16.77;;
16294;SDS011;8255;49.560;8.244;2023-03-03T05:25:34;23.43;;;15.87;;
16294;SDS011;8255;49.560;8.244;2023-03-03T05:28:00;26.80;;;16.30;;
16294;SDS011;8255;49.560;8.244;2023-03-03T05:30:28;26.87;;;16.87;;
16294;SDS011;8255;49.560;8.244;2023-03-03T05:32:55;27.03;;;16.77;;
16294;SDS011;8255;49.560;8.244;2023-03-03T05:35:24;26.87;;;17.10;;
16294;SDS011;8255;49.560;8.244;2023-03-03T05:37:51;26.07;;;17.43;;
16294;SDS011;8255;49.560;8.244;2023-03-03T05:40:17;27.37;;;16.53;;
16294;SDS011;8255;49.560;8.244;2023-03-03T05:42:43;26.57;;;17.97;;
16294;SDS011;8255;49.560;8.244;2023-03-03T05:45:10;27.30;;;17.57;;
16294;SDS011;8255;49.560;8.244;2023-03-03T05:47:36;28.73;;;16.33;;
16294;SDS011;8255;49.560;8.244;2023-03-03T05:50:03;27.17;;;16.53;;
16294;SDS011;8255;49.560;8.244;2023-03-03T05:52:31;25.67;;;16.63;;
16294;SDS011;8255;49.560;8.244;2023-03-03T05:54:57;27.70;;;17.70;;
16294;SDS011;8255;49.560;8.244;2023-03-03T05:57:23;29.53;;;16.60;;
16294;SDS011;8255;49.560;8.244;2023-03-03T05:59:49;25.63;;;17.17;;
16294;SDS011;8255;49.560;8.244;2023-03-03T06:02:16;27.23;;;17.17;;
16294;SDS011;8255;49.560;8.244;2023-03-03T06:04:42;26.13;;;17.47;;
16294;SDS011;8255;49.560;8.244;2023-03-03T06:07:08;27.43;;;17.30;;
16294;SDS011;8255;49.560;8.244;2023-03-03T06:09:36;25.63;;;16.77;;
16294;SDS011;8255;49.560;8.244;2023-03-03T06:12:02;28.63;;;17.73;;
16294;SDS011;8255;49.560;8.244;2023-03-03T06:14:29;27.63;;;18.40;;
16294;SDS011;8255;49.560;8.244;2023-03-03T06:16:55;27.27;;;17.63;;
16294;SDS011;8255;49.560;8.244;2023-03-03T06:19:22;30.57;;;18.80;;
16294;SDS011;8255;49.560;8.244;2023-03-03T06:21:48;29.83;;;17.80;;
16294;SDS011;8255;49.560;8.244;2023-03-03T06:24:15;33.60;;;19.40;;
16294;SDS011;8255;49.560;8.244;2023-03-03T06:26:43;33.30;;;19.83;;
16294;SDS011;8255;49.560;8.244;2023-03-03T06:29:09;32.30;;;19.83;;
16294;SDS011;8255;49.560;8.244;2023-03-03T06:31:35;34.83;;;20.17;;
16294;SDS011;8255;49.560;8.244;2023-03-03T06:34:02;33.33;;;21.23;;
16294;SDS011;8255;49.560;8.244;2023-03-03T06:36:28;35.97;;;20.83;;
16294;SDS011;8255;49.560;8.244;2023-03-03T06:38:54;38.88;;;26.80;;
16294;SDS011;8255;49.560;8.244;2023-03-03T06:41:20;38.57;;;23.77;;
16294;SDS011;8255;49.560;8.244;2023-03-03T06:43:48;30.67;;;19.83;;
16294;SDS011;8255;49.560;8.244;2023-03-03T06:46:15;28.57;;;18.90;;
16294;SDS011;8255;49.560;8.244;2023-03-03T06:48:42;28.93;;;19.57;;
16294;SDS011;8255;49.560;8.244;2023-03-03T06:51:13;31.97;;;18.90;;
16294;SDS011;8255;49.560;8.244;2023-03-03T06:53:41;29.93;;;18.83;;
16294;SDS011;8255;49.560;8.244;2023-03-03T06:56:08;26.90;;;18.57;;
16294;SDS011;8255;49.560;8.244;2023-03-03T06:58:34;28.97;;;18.77;;
16294;SDS011;8255;49.560;8.244;2023-03-03T07:01:02;30.27;;;18.97;;
16294;SDS011;8255;49.560;8.244;2023-03-03T07:03:30;29.87;;;18.70;;
16294;SDS011;8255;49.560;8.244;2023-03-03T07:05:58;31.43;;;18.60;;
16294;SDS011;8255;49.560;8.244;2023-03-03T07:08:26;32.43;;;19.20;;
16294;SDS011;8255;49.560;8.244;2023-03-03T07:10:55;30.67;;;18.50;;
16294;SDS011;8255;49.560;8.244;2023-03-03T07:13:21;27.00;;;18.77;;
16294;SDS011;8255;49.560;8.244;2023-03-03T07:15:49;28.80;;;18.53;;
16294;SDS011;8255;49.560;8.244;2023-03-03T07:18:29;32.43;;;19.37;;
16294;SDS011;8255;49.560;8.244;2023-03-03T07:20:57;34.40;;;19.40;;
16294;SDS011;8255;49.560;8.244;2023-03-03T07:23:25;31.77;;;19.57;;
16294;SDS011;8255;49.560;8.244;2023-03-03T07:25:52;29.97;;;19.07;;
16294;SDS011;8255;49.560;8.244;2023-03-03T07:28:19;30.23;;;19.00;;
16294;SDS011;8255;49.560;8.244;2023-03-03T07:30:47;30.80;;;18.37;;
16294;SDS011;8255;49.560;8.244;2023-03-03T07:33:17;27.40;;;17.63;;
16294;SDS011;8255;49.560;8.244;2023-03-03T07:35:45;26.47;;;17.93;;
16294;SDS011;8255;49.560;8.244;2023-03-03T07:38:16;28.73;;;18.93;;
16294;SDS011;8255;49.560;8.244;2023-03-03T07:40:46;26.73;;;17.67;;
16294;SDS011;8255;49.560;8.244;2023-03-03T07:43:16;25.70;;;17.70;;
16294;SDS011;8255;49.560;8.244;2023-03-03T07:45:47;29.37;;;18.00;;
16294;SDS011;8255;49.560;8.244;2023-03-03T07:48:15;31.10;;;19.43;;
16294;SDS011;8255;49.560;8.244;2023-03-03T07:50:45;28.03;;;18.10;;
16294;SDS011;8255;49.560;8.244;2023-03-03T07:53:13;29.27;;;18.43;;
16294;SDS011;8255;49.560;8.244;2023-03-03T07:55:40;29.80;;;19.00;;
16294;SDS011;8255;49.560;8.244;2023-03-03T07:58:15;28.33;;;19.00;;
16294;SDS011;8255;49.560;8.244;2023-03-03T08:03:36;30.93;;;18.87;;
16294;SDS011;8255;49.560;8.244;2023-03-03T08:06:06;27.50;;;18.97;;
16294;SDS011;8255;49.560;8.244;2023-03-03T08:08:35;27.07;;;18.53;;
16294;SDS011;8255;49.560;8.244;2023-03-03T08:11:02;32.03;;;20.40;;
16294;SDS011;8255;49.560;8.244;2023-03-03T08:13:34;28.73;;;19.87;;
16294;SDS011;8255;49.560;8.244;2023-03-03T08:16:03;30.40;;;20.77;;
16294;SDS011;8255;49.560;8.244;2023-03-03T08:18:43;33.10;;;20.47;;
16294;SDS011;8255;49.560;8.244;2023-03-03T08:21:13;31.40;;;20.43;;
16294;SDS011;8255;49.560;8.244;2023-03-03T08:23:40;31.60;;;20.17;;
16294;SDS011;8255;49.560;8.244;2023-03-03T08:26:06;33.33;;;21.47;;
16294;SDS011;8255;49.560;8.244;2023-03-03T08:28:33;30.87;;;20.53;;
16294;SDS011;8255;49.560;8.244;2023-03-03T08:31:00;31.37;;;21.30;;
16294;SDS011;8255;49.560;8.244;2023-03-03T08:33:26;35.87;;;22.30;;
16294;SDS011;8255;49.560;8.244;2023-03-03T08:35:52;35.40;;;22.63;;
16294;SDS011;8255;49.560;8.244;2023-03-03T08:38:20;38.53;;;23.03;;
16294;SDS011;8255;49.560;8.244;2023-03-03T08:40:47;34.70;;;22.30;;
16294;SDS011;8255;49.560;8.244;2023-03-03T08:43:14;36.70;;;22.83;;
16294;SDS011;8255;49.560;8.244;2023-03-03T08:45:41;33.10;;;21.50;;
16294;SDS011;8255;49.560;8.244;2023-03-03T08:48:08;33.87;;;22.40;;
16294;SDS011;8255;49.560;8.244;2023-03-03T08:50:34;35.57;;;22.70;;
16294;SDS011;8255;49.560;8.244;2023-03-03T08:53:01;34.90;;;21.63;;
16294;SDS011;8255;49.560;8.244;2023-03-03T08:55:28;35.17;;;22.33;;
16294;SDS011;8255;49.560;8.244;2023-03-03T08:57:55;33.87;;;22.33;;
16294;SDS011;8255;49.560;8.244;2023-03-03T09:00:22;41.13;;;24.57;;
16294;SDS011;8255;49.560;8.244;2023-03-03T09:02:49;35.00;;;22.83;;
16294;SDS011;8255;49.560;8.244;2023-03-03T09:05:16;35.63;;;23.20;;
16294;SDS011;8255;49.560;8.244;2023-03-03T09:07:43;34.30;;;21.10;;
16294;SDS011;8255;49.560;8.244;2023-03-03T09:10:10;35.87;;;23.07;;
16294;SDS011;8255;49.560;8.244;2023-03-03T09:12:39;36.07;;;23.80;;
16294;SDS011;8255;49.560;8.244;2023-03-03T09:15:17;35.83;;;24.00;;
16294;SDS011;8255;49.560;8.244;2023-03-03T09:17:44;35.80;;;23.37;;
16294;SDS011;8255;49.560;8.244;2023-03-03T09:20:19;35.70;;;22.33;;
16294;SDS011;8255;49.560;8.244;2023-03-03T09:22:47;35.00;;;23.07;;
16294;SDS011;8255;49.560;8.244;2023-03-03T09:25:17;35.47;;;22.67;;
16294;SDS011;8255;49.560;8.244;2023-03-03T09:27:48;35.83;;;22.73;;
16294;SDS011;8255;49.560;8.244;2023-03-03T09:30:26;33.67;;;22.40;;
16294;SDS011;8255;49.560;8.244;2023-03-03T09:32:55;31.50;;;21.53;;
16294;SDS011;8255;49.560;8.244;2023-03-03T09:35:26;31.87;;;22.03;;
16294;SDS011;8255;49.560;8.244;2023-03-03T09:38:00;32.53;;;21.73;;
16294;SDS011;8255;49.560;8.244;2023-03-03T09:40:35;33.73;;;22.30;;
16294;SDS011;8255;49.560;8.244;2023-03-03T09:43:04;31.23;;;21.13;;
16294;SDS011;8255;49.560;8.244;2023-03-03T09:45:39;34.07;;;21.63;;
16294;SDS011;8255;49.560;8.244;2023-03-03T09:50:57;33.30;;;20.40;;
16294;SDS011;8255;49.560;8.244;2023-03-03T09:53:30;31.55;;;20.70;;
16294;SDS011;8255;49.560;8.244;2023-03-03T09:56:01;31.25;;;20.80;;
16294;SDS011;8255;49.560;8.244;2023-03-03T09:58:39;30.67;;;21.45;;
16294;SDS011;8255;49.560;8.244;2023-03-03T10:01:15;30.48;;;21.73;;
16294;SDS011;8255;49.560;8.244;2023-03-03T10:03:54;29.48;;;20.10;;
16294;SDS011;8255;49.560;8.244;2023-03-03T10:06:24;30.02;;;19.60;;
16294;SDS011;8255;49.560;8.244;2023-03-03T10:08:55;30.48;;;19.90;;
16294;SDS011;8255;49.560;8.244;2023-03-03T10:11:24;30.25;;;21.52;;
16294;SDS011;8255;49.560;8.244;2023-03-03T10:13:58;29.38;;;20.30;;
16294;SDS011;8255;49.560;8.244;2023-03-03T10:16:32;29.67;;;20.33;;
16294;SDS011;8255;49.560;8.244;2023-03-03T10:19:02;29.67;;;20.65;;
16294;SDS011;8255;49.560;8.244;2023-03-03T10:21:29;30.15;;;21.40;;
16294;SDS011;8255;49.560;8.244;2023-03-03T10:24:01;26.80;;;19.50;;
16294;SDS011;8255;49.560;8.244;2023-03-03T10:26:37;29.85;;;20.23;;
16294;SDS011;8255;49.560;8.244;2023-03-03T10:29:10;29.67;;;20.27;;
16294;SDS011;8255;49.560;8.244;2023-03-03T10:31:47;30.60;;;20.65;;
16294;SDS011;8255;49.560;8.244;2023-03-03T10:34:19;29.08;;;20.48;;
16294;SDS011;8255;49.560;8.244;2023-03-03T10:36:51;30.23;;;20.63;;
16294;SDS011;8255;49.560;8.244;2023-03-03T10:39:25;31.50;;;21.45;;
16294;SDS011;8255;49.560;8.244;2023-03-03T10:41:57;29.83;;;21.35;;
16294;SDS011;8255;49.560;8.244;2023-03-03T10:44:30;30.42;;;21.00;;
16294;SDS011;8255;49.560;8.244;2023-03-03T10:47:16;29.15;;;20.83;;
16294;SDS011;8255;49.560;8.244;2023-03-03T10:49:47;29.50;;;21.50;;
16294;SDS011;8255;49.560;8.244;2023-03-03T10:52:21;32.03;;;21.38;;
16294;SDS011;8255;49.560;8.244;2023-03-03T10:54:58;29.58;;;21.38;;
16294;SDS011;8255;49.560;8.244;2023-03-03T10:57:30;28.80;;;20.35;;
16294;SDS011;8255;49.560;8.244;2023-03-03T11:00:05;29.48;;;20.73;;
16294;SDS011;8255;49.560;8.244;2023-03-03T11:02:35;30.58;;;21.05;;
16294;SDS011;8255;49.560;8.244;2023-03-03T11:05:14;27.80;;;20.95;;
16294;SDS011;8255;49.560;8.244;2023-03-03T11:07:43;31.38;;;20.08;;
16294;SDS011;8255;49.560;8.244;2023-03-03T11:10:14;27.45;;;18.80;;
16294;SDS011;8255;49.560;8.244;2023-03-03T11:12:46;27.23;;;19.25;;
16294;SDS011;8255;49.560;8.244;2023-03-03T11:15:28;27.67;;;19.67;;
16294;SDS011;8255;49.560;8.244;2023-03-03T11:18:02;27.02;;;19.98;;
16294;SDS011;8255;49.560;8.244;2023-03-03T11:20:30;38.08;;;20.52;;
16294;SDS011;8255;49.560;8.244;2023-03-03T11:23:00;30.08;;;20.33;;
16294;SDS011;8255;49.560;8.244;2023-03-03T11:25:31;29.02;;;19.88;;
16294;SDS011;8255;49.560;8.244;2023-03-03T11:28:11;27.92;;;20.25;;
16294;SDS011;8255;49.560;8.244;2023-03-03T11:30:44;29.23;;;20.00;;
16294;SDS011;8255;49.560;8.244;2023-03-03T11:33:14;30.75;;;21.08;;
16294;SDS011;8255;49.560;8.244;2023-03-03T11:35:44;26.27;;;19.77;;
16294;SDS011;8255;49.560;8.244;2023-03-03T11:38:20;33.28;;;20.83;;
16294;SDS011;8255;49.560;8.244;2023-03-03T11:40:49;26.52;;;18.70;;
16294;SDS011;8255;49.560;8.244;2023-03-03T11:43:17;30.40;;;19.67;;
16294;SDS011;8255;49.560;8.244;2023-03-03T11:45:47;30.92;;;19.10;;
16294;SDS011;8255;49.560;8.244;2023-03-03T11:48:16;30.13;;;19.52;;
16294;SDS011;8255;49.560;8.244;2023-03-03T11:50:46;27.10;;;19.70;;
16294;SDS011;8255;49.560;8.244;2023-03-03T11:53:22;28.60;;;18.25;;
16294;SDS011;8255;49.560;8.244;2023-03-03T11:55:51;29.55;;;18.45;;
16294;SDS011;8255;49.560;8.244;2023-03-03T11:58:21;30.73;;;17.75;;
16294;SDS011;8255;49.560;8.244;2023-03-03T12:00:51;26.65;;;19.15;;
16294;SDS011;8255;49.560;8.244;2023-03-03T12:03:20;30.73;;;19.77;;
16294;SDS011;8255;49.560;8.244;2023-03-03T12:05:54;23.67;;;17.88;;
16294;SDS011;8255;49.560;8.244;2023-03-03T12:08:28;28.98;;;18.08;;
16294;SDS011;8255;49.560;8.244;2023-03-03T12:10:58;26.60;;;18.13;;
16294;SDS011;8255;49.560;8.244;2023-03-03T12:13:27;25.30;;;18.17;;
16294;SDS011;8255;49.560;8.244;2023-03-03T12:15:58;25.05;;;18.20;;
16294;SDS011;8255;49.560;8.244;2023-03-03T12:18:41;25.00;;;17.77;;
16294;SDS011;8255;49.560;8.244;2023-03-03T12:21:15;24.92;;;18.25;;
16294;SDS011;8255;49.560;8.244;2023-03-03T12:23:46;26.33;;;17.75;;
16294;SDS011;8255;49.560;8.244;2023-03-03T12:26:18;27.35;;;17.88;;
16294;SDS011;8255;49.560;8.244;2023-03-03T12:28:47;24.23;;;17.55;;
16294;SDS011;8255;49.560;8.244;2023-03-03T12:31:19;24.88;;;18.00;;
16294;SDS011;8255;49.560;8.244;2023-03-03T12:33:51;25.85;;;18.10;;
16294;SDS011;8255;49.560;8.244;2023-03-03T12:39:06;28.02;;;18.60;;
16294;SDS011;8255;49.560;8.244;2023-03-03T12:41:39;29.80;;;17.38;;
16294;SDS011;8255;49.560;8.244;2023-03-03T12:44:12;26.05;;;18.10;;
16294;SDS011;8255;49.560;8.244;2023-03-03T12:46:44;25.83;;;18.17;;
16294;SDS011;8255;49.560;8.244;2023-03-03T12:49:11;25.25;;;18.08;;
16294;SDS011;8255;49.560;8.244;2023-03-03T12:51:47;24.80;;;17.00;;
16294;SDS011;8255;49.560;8.244;2023-03-03T12:54:26;20.30;;;16.63;;
16294;SDS011;8255;49.560;8.244;2023-03-03T12:56:54;25.45;;;17.58;;
16294;SDS011;8255;49.560;8.244;2023-03-03T12:59:24;26.50;;;17.23;;
16294;SDS011;8255;49.560;8.244;2023-03-03T13:02:19;25.88;;;17.00;;
16294;SDS011;8255;49.560;8.244;2023-03-03T13:04:51;26.92;;;16.45;;
16294;SDS011;8255;49.560;8.244;2023-03-03T13:07:19;22.02;;;16.38;;
16294;SDS011;8255;49.560;8.244;2023-03-03T13:09:54;23.90;;;16.30;;
16294;SDS011;8255;49.560;8.244;2023-03-03T13:12:28;23.80;;;17.55;;
16294;SDS011;8255;49.560;8.244;2023-03-03T13:14:56;22.20;;;16.60;;
16294;SDS011;8255;49.560;8.244;2023-03-03T13:17:29;20.75;;;15.48;;
16294;SDS011;8255;49.560;8.244;2023-03-03T13:19:58;22.98;;;16.20;;
16294;SDS011;8255;49.560;8.244;2023-03-03T13:22:31;20.45;;;16.52;;
16294;SDS011;8255;49.560;8.244;2023-03-03T13:25:00;22.55;;;17.35;;
16294;SDS011;8255;49.560;8.244;2023-03-03T13:27:30;25.52;;;18.08;;
16294;SDS011;8255;49.560;8.244;2023-03-03T13:29:59;22.98;;;16.85;;
16294;SDS011;8255;49.560;8.244;2023-03-03T13:32:30;20.05;;;14.93;;
16294;SDS011;8255;49.560;8.244;2023-03-03T13:34:58;21.73;;;15.35;;
16294;SDS011;8255;49.560;8.244;2023-03-03T13:37:26;20.00;;;15.88;;
16294;SDS011;8255;49.560;8.244;2023-03-03T13:39:55;21.30;;;15.13;;
16294;SDS011;8255;49.560;8.244;2023-03-03T13:42:25;23.80;;;14.48;;
16294;SDS011;8255;49.560;8.244;2023-03-03T13:44:53;20.92;;;15.10;;
16294;SDS011;8255;49.560;8.244;2023-03-03T13:47:20;17.88;;;15.00;;
16294;SDS011;8255;49.560;8.244;2023-03-03T13:49:57;19.95;;;15.25;;
16294;SDS011;8255;49.560;8.244;2023-03-03T13:52:25;20.45;;;15.07;;
16294;SDS011;8255;49.560;8.244;2023-03-03T13:54:56;22.00;;;15.45;;
16294;SDS011;8255;49.560;8.244;2023-03-03T13:57:30;21.67;;;16.15;;
16294;SDS011;8255;49.560;8.244;2023-03-03T14:00:04;17.80;;;14.50;;
16294;SDS011;8255;49.560;8.244;2023-03-03T14:02:49;19.67;;;14.25;;
16294;SDS011;8255;49.560;8.244;2023-03-03T14:05:22;18.27;;;14.27;;
16294;SDS011;8255;49.560;8.244;2023-03-03T14:07:51;19.45;;;14.10;;
16294;SDS011;8255;49.560;8.244;2023-03-03T14:10:22;18.23;;;14.38;;
16294;SDS011;8255;49.560;8.244;2023-03-03T14:12:50;21.80;;;14.63;;
16294;SDS011;8255;49.560;8.244;2023-03-03T14:15:23;20.52;;;15.35;;
16294;SDS011;8255;49.560;8.244;2023-03-03T14:17:57;22.30;;;14.98;;
16294;SDS011;8255;49.560;8.244;2023-03-03T14:20:29;19.35;;;13.93;;
16294;SDS011;8255;49.560;8.244;2023-03-03T14:22:57;16.67;;;13.50;;
16294;SDS011;8255;49.560;8.244;2023-03-03T14:25:24;18.63;;;14.13;;
16294;SDS011;8255;49.560;8.244;2023-03-03T14:28:01;18.42;;;13.60;;
16294;SDS011;8255;49.560;8.244;2023-03-03T14:30:32;19.60;;;14.15;;
16294;SDS011;8255;49.560;8.244;2023-03-03T14:33:18;17.33;;;13.68;;
16294;SDS011;8255;49.560;8.244;2023-03-03T14:35:50;20.20;;;13.75;;
16294;SDS011;8255;49.560;8.244;2023-03-03T14:38:34;19.23;;;13.65;;
16294;SDS011;8255;49.560;8.244;2023-03-03T14:41:09;20.33;;;13.55;;
16294;SDS011;8255;49.560;8.244;2023-03-03T14:43:38;17.58;;;12.98;;
16294;SDS011;8255;49.560;8.244;2023-03-03T14:48:49;17.45;;;13.43;;
16294;SDS011;8255;49.560;8.244;2023-03-03T14:51:22;19.63;;;13.88;;
16294;SDS011;8255;49.560;8.244;2023-03-03T14:53:49;17.95;;;12.77;;
16294;SDS011;8255;49.560;8.244;2023-03-03T14:56:19;19.13;;;13.50;;
16294;SDS011;8255;49.560;8.244;2023-03-03T14:58:48;16.58;;;12.60;;
16294;SDS011;8255;49.560;8.244;2023-03-03T15:01:16;19.20;;;13.82;;
16294;SDS011;8255;49.560;8.244;2023-03-03T15:03:47;19.50;;;13.23;;